LLSD/SDV METAR and TAF weather

Enter ICAO airport designator
Station Type Date Time Source
LLSD METAR 2019/02/22 19:50 UTC NOAA

LLSD 221950Z 10004KT 9999 FEW025 13/09 Q1017


Station Type Date Time Source
LLSD Decoded METAR 2019/02/22 19:50 UTC NOAA

Tel Aviv / Sde-Dov Airport, Israel (LLSD) 32-06-53N 034-46-56E
Feb 22, 2019 - 02:50 PM EST / 2019.02.22 1950 UTC
Wind: from the E (100 degrees) at 5 MPH (4 KT):0
Visibility: greater than 7 mile(s):0
Sky conditions: mostly clear
Temperature: 55 F (13 C)
Dew Point: 48 F (9 C)
Relative Humidity: 76%
Pressure (altimeter): 30.03 in. Hg (1017 hPa)
ob: LLSD 221950Z 10004KT 9999 FEW025 13/09 Q1017
cycle: 20

Station Type Date Time Source
LLSD TAF 2019/02/22 18:12 UTC NOAA

TAF LLSD 221707Z 2218/2318 15004KT 9999 SCT030 PROB30 2300/2307 RA BKN025
BECMG 2307/2309 24008KT
BECMG 2312/2314 32008KT FEW030 TX17/2312Z TN10/2304Z


Example: see airport list